Time;durP1;ratioP1;P1;durP2;ratioP2;P2;SDS_P1;SDS_P2;PMS_P1;PMS_P2;Temp;Humidity;BMP_temperature;BMP_pressure;BME280_temperature;BME280_humidity;BME280_pressure;Samples;Min_cycle;Max_cycle;Signal;HPM_P1;HPM_P2
2020/12/30 00:01:25;;;;;;;4.87;4.10;;;1.80;99.90;;;;;;5078996;28;20678;-71
2020/12/30 00:03:50;;;;;;;4.50;4.10;;;1.80;99.90;;;;;;5078804;28;20686;-73
2020/12/30 00:06:22;;;;;;;5.53;4.10;;;1.90;99.90;;;;;;5081765;28;20240;-72
2020/12/30 00:08:48;;;;;;;4.27;3.87;;;1.90;99.90;;;;;;5079379;28;20191;-71
2020/12/30 00:11:16;;;;;;;5.40;4.17;;;1.90;99.90;;;;;;5080359;28;20279;-72
2020/12/30 00:13:42;;;;;;;4.70;3.73;;;1.90;99.90;;;;;;5083712;28;20246;-73
2020/12/30 00:16:07;;;;;;;4.03;3.63;;;1.90;99.90;;;;;;5083669;28;20219;-73
2020/12/30 00:18:33;;;;;;;4.43;4.03;;;1.80;99.90;;;;;;5079900;28;20290;-73
2020/12/30 00:20:59;;;;;;;4.67;4.20;;;1.80;99.90;;;;;;5077916;28;20206;-71
2020/12/30 00:23:24;;;;;;;3.97;3.27;;;1.80;99.90;;;;;;5080261;28;20275;-71
2020/12/30 00:25:53;;;;;;;4.27;3.87;;;1.80;99.90;;;;;;5091403;28;20530;-72
2020/12/30 00:28:19;;;;;;;5.03;3.97;;;1.90;99.90;;;;;;5084617;28;20255;-72
2020/12/30 00:30:45;;;;;;;4.00;3.57;;;1.80;99.90;;;;;;5082900;28;20259;-71
2020/12/30 00:33:10;;;;;;;6.27;3.97;;;1.80;99.90;;;;;;5079876;28;20281;-72
2020/12/30 00:35:36;;;;;;;5.00;3.83;;;1.80;99.90;;;;;;5084863;28;20215;-73
2020/12/30 00:38:02;;;;;;;4.87;4.20;;;1.80;99.90;;;;;;5077893;28;20186;-72
2020/12/30 00:40:28;;;;;;;3.93;3.53;;;1.70;99.90;;;;;;5084651;28;20215;-72
2020/12/30 00:42:53;;;;;;;5.63;4.63;;;1.80;99.90;;;;;;5086169;28;20176;-72
2020/12/30 00:45:19;;;;;;;4.30;3.90;;;1.80;99.90;;;;;;5090745;28;20601;-71
2020/12/30 00:47:45;;;;;;;4.33;3.93;;;1.80;99.90;;;;;;5096009;28;20180;-73
2020/12/30 00:50:10;;;;;;;4.60;4.20;;;1.80;99.90;;;;;;5102543;28;20175;-71
2020/12/30 00:52:36;;;;;;;4.80;4.20;;;1.80;99.90;;;;;;5093395;28;20186;-72
2020/12/30 00:55:03;;;;;;;6.00;4.53;;;1.80;99.90;;;;;;5086294;28;20211;-71
2020/12/30 00:57:28;;;;;;;4.90;4.40;;;1.90;99.90;;;;;;5086452;28;20176;-72
2020/12/30 00:59:54;;;;;;;5.13;3.70;;;1.90;99.90;;;;;;5091007;28;20197;-72
2020/12/30 01:02:19;;;;;;;4.63;4.20;;;1.90;99.90;;;;;;5081496;28;20270;-71
2020/12/30 01:04:45;;;;;;;5.20;4.20;;;2.00;99.90;;;;;;5077917;28;20203;-71
2020/12/30 01:07:11;;;;;;;5.10;4.40;;;2.10;99.90;;;;;;5079616;28;20672;-71
2020/12/30 01:09:37;;;;;;;4.80;4.10;;;2.20;99.90;;;;;;5080294;28;20212;-72
2020/12/30 01:12:05;;;;;;;5.27;4.00;;;2.20;99.90;;;;;;5079134;28;20189;-72
2020/12/30 01:14:31;;;;;;;4.67;4.10;;;2.30;99.90;;;;;;5089787;28;20587;-72
2020/12/30 01:16:57;;;;;;;4.83;4.23;;;2.30;99.90;;;;;;5081778;28;20263;-73
2020/12/30 01:19:23;;;;;;;5.07;3.60;;;2.30;99.90;;;;;;5081614;28;20197;-72
2020/12/30 01:21:49;;;;;;;5.07;4.30;;;2.30;99.90;;;;;;5083813;28;20224;-72
2020/12/30 01:24:16;;;;;;;4.77;4.10;;;2.40;99.90;;;;;;5082006;28;20568;-71
2020/12/30 01:26:44;;;;;;;5.97;4.30;;;2.40;99.90;;;;;;5082676;28;20250;-71
2020/12/30 01:29:09;;;;;;;5.03;4.53;;;2.40;99.90;;;;;;5082075;28;20210;-72
2020/12/30 01:31:36;;;;;;;8.23;4.43;;;2.40;99.90;;;;;;5080937;28;20622;-71
2020/12/30 01:34:03;;;;;;;4.03;3.60;;;2.50;99.90;;;;;;5081965;28;20214;-72
2020/12/30 01:36:28;;;;;;;4.33;3.73;;;2.50;99.90;;;;;;5080726;28;20186;-72
2020/12/30 01:38:55;;;;;;;4.13;3.73;;;2.50;99.90;;;;;;5079591;28;20193;-72
2020/12/30 01:41:21;;;;;;;3.60;3.30;;;2.50;99.90;;;;;;5082635;28;20203;-72
2020/12/30 01:44:02;;;;;;;3.90;3.30;;;2.60;99.90;;;;;;5080817;28;20212;-71
2020/12/30 01:46:41;;;;;;;5.03;3.20;;;2.60;99.90;;;;;;5079842;28;20228;-72
2020/12/30 01:49:27;;;;;;;4.53;3.27;;;2.60;99.90;;;;;;5083702;28;20180;-71
2020/12/30 01:51:53;;;;;;;4.37;3.33;;;2.60;99.90;;;;;;5077393;28;20218;-72
2020/12/30 01:54:20;;;;;;;3.53;3.23;;;2.60;99.90;;;;;;5082113;28;20305;-72
2020/12/30 01:56:47;;;;;;;3.30;2.97;;;2.60;99.90;;;;;;5084093;28;20187;-72
2020/12/30 01:59:15;;;;;;;3.97;3.13;;;2.60;99.90;;;;;;5074256;28;20235;-73
2020/12/30 02:02:03;;;;;;;3.40;3.10;;;2.60;99.70;;;;;;5079138;28;20249;-73
2020/12/30 02:04:38;;;;;;;3.60;2.70;;;2.60;99.40;;;;;;5076833;28;20201;-73
2020/12/30 02:07:04;;;;;;;2.83;2.63;;;2.70;99.30;;;;;;5084161;28;20212;-70
2020/12/30 02:09:29;;;;;;;2.63;2.43;;;2.70;99.20;;;;;;5088168;28;20218;-72
2020/12/30 02:11:55;;;;;;;2.60;2.40;;;2.80;99.00;;;;;;5081703;28;20642;-72
2020/12/30 02:14:21;;;;;;;2.50;2.17;;;2.90;98.90;;;;;;5080534;28;20203;-75
2020/12/30 02:16:48;;;;;;;3.77;2.70;;;2.90;98.90;;;;;;5078135;28;20312;-73
2020/12/30 02:19:13;;;;;;;2.80;2.50;;;2.90;99.10;;;;;;5084126;28;20192;-72
2020/12/30 02:21:39;;;;;;;3.27;2.30;;;2.80;98.90;;;;;;5075616;28;20207;-72
2020/12/30 02:24:05;;;;;;;3.23;2.30;;;2.80;98.80;;;;;;5083520;28;20252;-72
2020/12/30 02:26:31;;;;;;;2.60;2.40;;;2.80;98.90;;;;;;5079608;28;20289;-73
2020/12/30 02:28:56;;;;;;;3.23;2.20;;;2.90;98.60;;;;;;5084079;28;20212;-73
2020/12/30 02:31:22;;;;;;;2.57;2.37;;;2.90;98.70;;;;;;5082650;28;20242;-73
2020/12/30 02:33:48;;;;;;;2.40;2.30;;;2.90;98.60;;;;;;5077562;28;20195;-73
2020/12/30 02:36:13;;;;;;;2.47;2.10;;;2.90;98.60;;;;;;5084178;28;20645;-73
2020/12/30 02:38:39;;;;;;;4.40;2.87;;;2.90;98.60;;;;;;5086064;28;20179;-71
2020/12/30 02:41:06;;;;;;;2.90;2.30;;;2.90;98.70;;;;;;5078758;28;20280;-73
2020/12/30 02:43:31;;;;;;;3.30;2.20;;;2.80;98.80;;;;;;5070600;28;20200;-72
2020/12/30 02:45:57;;;;;;;4.20;2.90;;;2.90;98.90;;;;;;5079350;28;20179;-70
2020/12/30 02:48:23;;;;;;;2.93;2.30;;;2.90;98.80;;;;;;5082149;28;20266;-71
2020/12/30 02:50:48;;;;;;;3.37;2.37;;;2.90;98.90;;;;;;5081063;28;20653;-72
2020/12/30 02:53:14;;;;;;;2.40;2.20;;;2.90;98.90;;;;;;5075494;28;20213;-72
2020/12/30 02:55:40;;;;;;;3.70;2.57;;;2.90;98.80;;;;;;5083721;28;20185;-74
2020/12/30 02:58:06;;;;;;;2.27;2.03;;;2.80;99.00;;;;;;5075386;28;20243;-72
2020/12/30 03:00:31;;;;;;;4.97;2.83;;;2.80;99.20;;;;;;5076365;28;20638;-72
2020/12/30 03:02:57;;;;;;;3.60;2.30;;;2.80;99.20;;;;;;5080778;28;20533;-72
2020/12/30 03:05:22;;;;;;;3.33;2.30;;;2.80;99.40;;;;;;5081177;28;20644;-72
2020/12/30 03:07:49;;;;;;;2.50;2.30;;;2.70;99.40;;;;;;5079736;28;20172;-73
2020/12/30 03:10:15;;;;;;;2.53;2.30;;;2.70;99.60;;;;;;5080236;28;20940;-73
2020/12/30 03:12:41;;;;;;;2.30;2.07;;;2.60;99.80;;;;;;5083376;28;20271;-73
2020/12/30 03:15:06;;;;;;;3.17;2.20;;;2.60;99.90;;;;;;5079905;28;20697;-72
2020/12/30 03:17:32;;;;;;;2.83;2.47;;;2.50;99.90;;;;;;5075975;28;20185;-72
2020/12/30 03:19:58;;;;;;;2.37;2.00;;;2.50;99.90;;;;;;5078787;28;20196;-73
2020/12/30 03:22:23;;;;;;;3.80;2.40;;;2.50;99.90;;;;;;5075505;28;20699;-72
2020/12/30 03:24:49;;;;;;;2.67;2.27;;;2.50;99.90;;;;;;5078723;28;20580;-72
2020/12/30 03:27:14;;;;;;;2.53;2.13;;;2.50;99.90;;;;;;5077943;28;20187;-72
2020/12/30 03:29:40;;;;;;;3.67;2.30;;;2.50;99.90;;;;;;5073982;28;20174;-72
2020/12/30 03:32:06;;;;;;;5.87;2.60;;;2.40;99.90;;;;;;5076909;28;20183;-72
2020/12/30 03:34:31;;;;;;;3.00;2.53;;;2.40;99.90;;;;;;5080484;28;20227;-72
2020/12/30 03:36:57;;;;;;;3.13;1.93;;;2.40;99.90;;;;;;5075293;28;20191;-74
2020/12/30 03:39:22;;;;;;;3.67;2.60;;;2.40;99.90;;;;;;5075794;28;20791;-72
2020/12/30 03:41:48;;;;;;;3.33;2.43;;;2.40;99.90;;;;;;5080977;28;20747;-72
2020/12/30 03:44:13;;;;;;;2.80;2.33;;;2.40;99.90;;;;;;5076097;28;20254;-72
2020/12/30 03:46:39;;;;;;;2.33;2.13;;;2.40;99.90;;;;;;5078702;28;20173;-72
2020/12/30 03:49:04;;;;;;;3.10;2.20;;;2.30;99.90;;;;;;5073314;28;20856;-71
2020/12/30 03:51:30;;;;;;;3.13;2.70;;;2.20;99.90;;;;;;5078058;28;20180;-73
2020/12/30 03:53:56;;;;;;;3.07;2.57;;;2.00;99.90;;;;;;5080461;28;20203;-71
2020/12/30 03:56:21;;;;;;;3.83;2.77;;;1.90;99.90;;;;;;5083324;28;20189;-71
2020/12/30 03:58:47;;;;;;;3.90;2.70;;;1.80;99.90;;;;;;5086533;28;20193;-72
2020/12/30 04:01:12;;;;;;;5.87;2.73;;;1.70;99.90;;;;;;5083656;28;20201;-72
2020/12/30 04:03:38;;;;;;;6.07;2.90;;;1.60;99.90;;;;;;5083713;28;20580;-72
2020/12/30 04:06:03;;;;;;;3.23;2.73;;;1.50;99.90;;;;;;5089629;28;20183;-71
2020/12/30 04:08:29;;;;;;;4.20;2.50;;;1.50;99.90;;;;;;5079669;28;20232;-72
2020/12/30 04:10:55;;;;;;;4.20;2.50;;;1.50;99.90;;;;;;5084863;28;20182;-72
2020/12/30 04:13:20;;;;;;;3.37;2.30;;;1.50;99.90;;;;;;5089873;28;20192;-72
2020/12/30 04:15:47;;;;;;;3.33;2.30;;;1.60;99.90;;;;;;5084124;28;20208;-71
2020/12/30 04:18:12;;;;;;;5.47;2.57;;;1.60;99.90;;;;;;5086391;28;20186;-72
2020/12/30 04:20:38;;;;;;;9.50;4.57;;;1.70;99.90;;;;;;5077750;28;20274;-72
2020/12/30 04:23:04;;;;;;;3.83;2.37;;;1.70;99.90;;;;;;5084110;28;20174;-71
2020/12/30 04:25:29;;;;;;;4.07;2.10;;;1.50;99.90;;;;;;5087683;28;20178;-71
2020/12/30 04:27:55;;;;;;;3.60;2.20;;;1.40;99.90;;;;;;5077062;28;20553;-72
2020/12/30 04:30:20;;;;;;;2.40;2.20;;;1.30;99.90;;;;;;5073368;28;20215;-72
2020/12/30 04:32:46;;;;;;;2.70;2.00;;;1.20;99.90;;;;;;5079597;28;20835;-71
2020/12/30 04:35:12;;;;;;;3.20;2.40;;;1.20;99.90;;;;;;5079106;28;20214;-72
2020/12/30 04:37:37;;;;;;;4.03;2.13;;;1.30;99.90;;;;;;5077574;28;20168;-74
2020/12/30 04:40:03;;;;;;;5.07;2.47;;;1.40;99.90;;;;;;5079341;28;20829;-72
2020/12/30 04:42:35;;;;;;;3.17;2.10;;;1.50;99.90;;;;;;5078879;28;20230;-74
2020/12/30 04:45:08;;;;;;;2.60;1.83;;;1.60;99.90;;;;;;5079067;28;20194;-73
2020/12/30 04:47:34;;;;;;;3.05;2.10;;;1.70;99.90;;;;;;5083547;28;20453;-72
2020/12/30 04:50:00;;;;;;;4.33;1.80;;;1.80;99.90;;;;;;5077072;28;20656;-71
2020/12/30 04:52:27;;;;;;;3.63;2.20;;;2.00;99.90;;;;;;5080352;28;20187;-73
2020/12/30 04:54:53;;;;;;;3.27;2.20;;;2.00;99.90;;;;;;5079231;28;20699;-72
2020/12/30 04:57:42;;;;;;;3.17;1.87;;;2.10;99.90;;;;;;5082436;28;20661;-73
2020/12/30 05:00:08;;;;;;;3.57;2.40;;;2.10;99.90;;;;;;5078750;28;20189;-72
2020/12/30 05:02:34;;;;;;;3.50;1.90;;;2.10;99.90;;;;;;5083822;28;20184;-73
2020/12/30 05:05:01;;;;;;;4.50;2.03;;;2.10;99.90;;;;;;5073479;28;20203;-72
2020/12/30 05:07:28;;;;;;;2.57;2.13;;;2.10;99.90;;;;;;5081487;28;20202;-73
2020/12/30 05:09:55;;;;;;;5.10;1.90;;;2.10;99.90;;;;;;5081878;28;20679;-73
2020/12/30 05:12:21;;;;;;;2.50;1.90;;;2.10;99.90;;;;;;5080892;28;20662;-72
2020/12/30 05:14:47;;;;;;;3.87;2.13;;;2.10;99.90;;;;;;5081545;28;20207;-72
2020/12/30 05:17:14;;;;;;;1.87;1.70;;;2.20;99.90;;;;;;5083110;28;20171;-74
2020/12/30 05:19:41;;;;;;;2.43;1.87;;;2.30;99.90;;;;;;5084386;28;20199;-73
2020/12/30 05:22:06;;;;;;;2.60;2.10;;;2.30;99.90;;;;;;5077448;28;20213;-72
2020/12/30 05:24:32;;;;;;;2.80;2.27;;;2.20;99.80;;;;;;5083007;28;20197;-73
2020/12/30 05:26:59;;;;;;;3.37;1.70;;;2.30;99.60;;;;;;5083583;28;20193;-71
2020/12/30 05:29:25;;;;;;;3.20;1.87;;;2.30;99.60;;;;;;5079751;28;20229;-72
2020/12/30 05:31:55;;;;;;;2.13;1.87;;;2.30;99.50;;;;;;5079458;28;20186;-71
2020/12/30 05:34:21;;;;;;;2.37;1.60;;;2.30;99.30;;;;;;5077604;28;20577;-73
2020/12/30 05:36:48;;;;;;;1.80;1.70;;;2.40;99.30;;;;;;5083213;28;20751;-74
2020/12/30 05:39:33;;;;;;;2.60;1.93;;;2.30;99.20;;;;;;5079594;28;20186;-72
2020/12/30 05:42:16;;;;;;;2.30;2.10;;;2.30;99.40;;;;;;5075950;28;20203;-71
2020/12/30 05:44:49;;;;;;;2.50;1.90;;;2.30;99.50;;;;;;5099561;28;20191;-73
2020/12/30 05:47:28;;;;;;;2.70;2.20;;;2.20;99.70;;;;;;5097224;28;20178;-74
2020/12/30 05:49:57;;;;;;;2.70;2.37;;;2.10;99.90;;;;;;5092914;28;20193;-74
2020/12/30 05:52:26;;;;;;;3.60;2.50;;;2.10;99.90;;;;;;5084575;28;20659;-72
2020/12/30 05:54:54;;;;;;;2.63;2.23;;;1.90;99.90;;;;;;5088331;28;20287;-74
2020/12/30 05:57:24;;;;;;;4.53;2.50;;;1.70;99.90;;;;;;5076353;28;20258;-72
2020/12/30 06:00:13;;;;;;;3.97;2.80;;;1.50;99.90;;;;;;5080908;28;20352;-74
2020/12/30 06:02:40;;;;;;;3.17;2.30;;;1.40;99.90;;;;;;5083854;28;20603;-73
2020/12/30 06:05:19;;;;;;;5.43;2.57;;;1.30;99.90;;;;;;5081445;28;20191;-74
2020/12/30 06:07:46;;;;;;;2.83;2.23;;;1.30;99.90;;;;;;5076962;28;20280;-74
2020/12/30 06:10:17;;;;;;;2.97;2.47;;;1.30;99.90;;;;;;5080924;28;20178;-73
2020/12/30 06:12:50;;;;;;;4.13;2.47;;;1.40;99.90;;;;;;5074811;28;20233;-74
2020/12/30 06:15:21;;;;;;;2.73;2.53;;;1.40;99.90;;;;;;5084148;28;20277;-74
2020/12/30 06:18:01;;;;;;;3.60;2.50;;;1.40;99.90;;;;;;5076793;28;20179;-73
2020/12/30 06:20:31;;;;;;;3.00;2.23;;;1.40;99.90;;;;;;5084829;28;20213;-75
2020/12/30 06:22:58;;;;;;;4.13;2.60;;;1.40;99.90;;;;;;5080292;28;20171;-75
2020/12/30 06:25:26;;;;;;;4.03;2.50;;;1.40;99.90;;;;;;5086046;28;20183;-74
2020/12/30 06:27:53;;;;;;;3.30;3.00;;;1.40;99.90;;;;;;5076037;28;20192;-73
2020/12/30 06:30:19;;;;;;;2.83;2.60;;;1.40;99.90;;;;;;5076859;28;20719;-73
2020/12/30 06:32:45;;;;;;;3.67;2.33;;;1.40;99.90;;;;;;5086822;28;20212;-74
2020/12/30 06:35:11;;;;;;;3.17;2.20;;;1.50;99.90;;;;;;5076137;28;20228;-75
2020/12/30 06:37:41;;;;;;;2.00;1.80;;;1.70;99.90;;;;;;5077576;28;20261;-73
2020/12/30 06:40:27;;;;;;;5.20;2.10;;;1.80;99.90;;;;;;5076836;28;20189;-75
2020/12/30 06:43:00;;;;;;;3.53;1.90;;;1.80;99.90;;;;;;5082595;28;20718;-74
2020/12/30 06:45:47;;;;;;;3.10;2.40;;;1.80;99.90;;;;;;5078113;28;20601;-74
2020/12/30 06:48:13;;;;;;;3.43;2.80;;;1.80;99.90;;;;;;5079115;28;20171;-75
2020/12/30 06:50:40;;;;;;;3.17;2.87;;;1.70;99.90;;;;;;5071568;28;20191;-73
2020/12/30 06:53:24;;;;;;;4.67;3.50;;;1.60;99.90;;;;;;5076673;28;20209;-74
2020/12/30 06:55:50;;;;;;;3.90;3.60;;;1.40;99.90;;;;;;5077664;28;20589;-74
2020/12/30 06:58:44;;;;;;;5.10;3.60;;;1.30;99.90;;;;;;5081826;28;20268;-73
2020/12/30 07:01:20;;;;;;;5.50;4.00;;;1.20;99.90;;;;;;5081904;28;20764;-73
2020/12/30 07:03:48;;;;;;;4.63;4.17;;;1.20;99.90;;;;;;5074407;28;20195;-73
2020/12/30 07:06:25;;;;;;;5.33;3.70;;;1.10;99.90;;;;;;5074028;28;20178;-73
2020/12/30 07:08:52;;;;;;;4.90;4.40;;;1.10;99.90;;;;;;5078713;28;20189;-74
2020/12/30 07:11:37;;;;;;;5.40;4.07;;;1.10;99.90;;;;;;5073469;28;20320;-72
2020/12/30 07:14:13;;;;;;;4.53;4.13;;;1.00;99.90;;;;;;5074594;28;20192;-72
2020/12/30 07:16:41;;;;;;;4.03;3.60;;;1.10;99.90;;;;;;5074536;28;20170;-72
2020/12/30 07:19:15;;;;;;;5.30;4.30;;;1.20;99.90;;;;;;5088829;28;20187;-74
2020/12/30 07:22:07;;;;;;;4.00;3.60;;;1.40;99.90;;;;;;5078033;28;20202;-74
2020/12/30 07:24:51;;;;;;;4.10;3.47;;;1.50;99.90;;;;;;5074443;28;20212;-72
2020/12/30 07:27:17;;;;;;;4.93;4.40;;;1.60;99.90;;;;;;5077529;28;20884;-73
2020/12/30 07:29:44;;;;;;;3.93;3.33;;;1.60;99.90;;;;;;5086195;28;20168;-75
2020/12/30 07:32:11;;;;;;;5.47;4.10;;;1.50;99.90;;;;;;5082186;28;20235;-74
2020/12/30 07:34:47;;;;;;;5.77;3.73;;;1.50;99.90;;;;;;5073468;28;20710;-74
2020/12/30 07:37:14;;;;;;;3.63;2.83;;;1.50;99.90;;;;;;5079884;28;20177;-72
2020/12/30 07:39:42;;;;;;;4.20;3.10;;;1.50;99.90;;;;;;5078448;28;20640;-73
2020/12/30 07:42:13;;;;;;;5.07;3.47;;;1.60;99.90;;;;;;5075225;28;20214;-73
2020/12/30 07:44:43;;;;;;;5.57;3.20;;;1.70;99.90;;;;;;5083754;28;20282;-72
2020/12/30 07:47:09;;;;;;;5.03;3.53;;;1.80;99.90;;;;;;5084145;28;20602;-72
2020/12/30 07:49:35;;;;;;;4.90;2.83;;;1.90;99.90;;;;;;5073874;28;20289;-72
2020/12/30 07:52:02;;;;;;;4.40;2.80;;;2.10;99.30;;;;;;5083509;28;20217;-73
2020/12/30 07:54:29;;;;;;;4.17;2.67;;;2.90;97.90;;;;;;5076129;28;20201;-74
2020/12/30 07:57:02;;;;;;;3.03;2.73;;;3.90;94.80;;;;;;5079650;28;20189;-73
2020/12/30 07:59:27;;;;;;;2.60;2.23;;;4.50;91.80;;;;;;5075415;28;20558;-72
2020/12/30 08:01:57;;;;;;;3.20;2.33;;;4.70;91.00;;;;;;5074626;28;20207;-74
2020/12/30 08:04:23;;;;;;;2.60;2.20;;;4.90;90.40;;;;;;5072880;28;20334;-73
2020/12/30 08:06:48;;;;;;;4.40;2.03;;;5.50;86.90;;;;;;5087109;28;20261;-72
2020/12/30 08:09:15;;;;;;;3.33;2.20;;;6.20;80.20;;;;;;5088254;28;20239;-72
2020/12/30 08:11:48;;;;;;;3.40;2.53;;;7.00;74.60;;;;;;5087145;28;20181;-73
2020/12/30 08:14:15;;;;;;;3.17;2.50;;;7.70;70.50;;;;;;5075548;28;20229;-74
2020/12/30 08:16:53;;;;;;;4.40;2.80;;;8.40;65.40;;;;;;5080659;28;20174;-72
2020/12/30 08:19:33;;;;;;;2.90;2.60;;;9.10;61.90;;;;;;5083293;28;20247;-72
2020/12/30 08:22:09;;;;;;;2.83;2.43;;;9.00;59.60;;;;;;5074633;28;20733;-74
2020/12/30 08:24:37;;;;;;;2.40;2.20;;;7.70;63.50;;;;;;5080157;28;20540;-73
2020/12/30 08:27:03;;;;;;;3.47;2.50;;;6.20;70.60;;;;;;5078307;28;20270;-73
2020/12/30 08:29:35;;;;;;;2.80;2.50;;;5.00;80.30;;;;;;5084015;28;20184;-73
2020/12/30 08:32:07;;;;;;;2.73;2.30;;;4.10;88.80;;;;;;5077837;28;20268;-73
2020/12/30 08:34:37;;;;;;;2.87;2.30;;;3.70;91.70;;;;;;5078242;28;20196;-74
2020/12/30 08:37:09;;;;;;;3.23;2.70;;;3.50;93.00;;;;;;5081072;28;20191;-75
2020/12/30 08:39:55;;;;;;;2.60;2.30;;;3.40;93.80;;;;;;5083239;28;20189;-73
2020/12/30 08:42:45;;;;;;;2.87;2.53;;;3.30;94.40;;;;;;5087507;28;20314;-75
2020/12/30 08:45:13;;;;;;;3.73;2.30;;;3.30;94.90;;;;;;5086193;28;20286;-75
2020/12/30 08:47:39;;;;;;;3.00;2.20;;;3.10;95.40;;;;;;5086983;28;20209;-73
2020/12/30 08:50:07;;;;;;;2.53;2.23;;;3.00;96.00;;;;;;5083320;28;20175;-74
2020/12/30 08:52:42;;;;;;;3.47;2.40;;;3.00;96.20;;;;;;5084301;28;20185;-73
2020/12/30 08:55:09;;;;;;;2.93;2.53;;;3.00;96.50;;;;;;5080227;28;20207;-74
2020/12/30 08:57:34;;;;;;;3.40;2.50;;;3.00;96.40;;;;;;5079139;28;20178;-74
2020/12/30 09:00:15;;;;;;;4.63;2.50;;;3.10;96.20;;;;;;5079323;28;20185;-73
2020/12/30 09:02:41;;;;;;;3.70;2.37;;;3.10;96.30;;;;;;5085945;28;20210;-74
2020/12/30 09:05:07;;;;;;;4.40;2.43;;;3.20;95.90;;;;;;5076758;28;20406;-73
2020/12/30 09:07:32;;;;;;;2.90;2.63;;;3.40;95.80;;;;;;5081489;28;20171;-73
2020/12/30 09:10:04;;;;;;;2.73;2.30;;;3.50;95.50;;;;;;5089217;28;20175;-73
2020/12/30 09:12:29;;;;;;;4.30;3.03;;;3.60;95.10;;;;;;5081521;28;20183;-75
2020/12/30 09:14:55;;;;;;;2.60;2.03;;;3.70;95.10;;;;;;5085980;28;20201;-72
2020/12/30 09:17:21;;;;;;;3.27;2.37;;;3.70;94.70;;;;;;5076744;28;20190;-72
2020/12/30 09:19:47;;;;;;;2.00;1.80;;;3.70;95.00;;;;;;5079774;28;20190;-74
2020/12/30 09:22:13;;;;;;;3.10;2.03;;;3.70;94.70;;;;;;5077795;28;20241;-71
2020/12/30 09:24:40;;;;;;;2.30;1.80;;;3.70;94.70;;;;;;5079225;28;20191;-71
2020/12/30 09:27:22;;;;;;;2.83;2.20;;;3.70;94.90;;;;;;5080196;28;20702;-72
2020/12/30 09:30:06;;;;;;;2.97;2.20;;;3.70;94.50;;;;;;5079371;28;20227;-73
2020/12/30 09:32:32;;;;;;;6.67;2.33;;;3.70;94.70;;;;;;5086597;28;20183;-72
2020/12/30 09:35:06;;;;;;;4.03;1.83;;;3.80;95.30;;;;;;5076274;28;20203;-72
2020/12/30 09:37:32;;;;;;;2.43;2.10;;;3.80;95.00;;;;;;5072816;28;20185;-74
2020/12/30 09:40:09;;;;;;;3.63;2.70;;;3.80;94.90;;;;;;5077337;28;20236;-73
2020/12/30 09:42:35;;;;;;;4.67;2.63;;;3.70;95.40;;;;;;5074106;28;20205;-73
2020/12/30 09:45:06;;;;;;;2.67;2.47;;;3.70;95.20;;;;;;5080490;28;20212;-71
2020/12/30 09:47:33;;;;;;;4.03;2.50;;;3.70;95.50;;;;;;5081544;28;20184;-72
2020/12/30 09:49:58;;;;;;;3.10;2.20;;;3.70;96.20;;;;;;5080809;28;20180;-73
2020/12/30 09:52:24;;;;;;;2.63;2.33;;;3.60;95.70;;;;;;5078765;28;20533;-73
2020/12/30 09:54:50;;;;;;;2.60;2.20;;;3.60;95.40;;;;;;5087883;28;20243;-72
2020/12/30 09:57:15;;;;;;;5.03;2.43;;;3.60;95.20;;;;;;5083786;28;20538;-74
2020/12/30 09:59:43;;;;;;;2.90;2.57;;;3.70;95.10;;;;;;5076251;28;20272;-73
2020/12/30 10:02:09;;;;;;;4.53;3.00;;;3.80;94.30;;;;;;5076847;28;20678;-70
2020/12/30 10:04:35;;;;;;;4.23;2.80;;;4.00;94.20;;;;;;5073374;28;20223;-72
2020/12/30 10:07:01;;;;;;;4.63;3.70;;;4.10;94.00;;;;;;5074365;28;20210;-71
2020/12/30 10:09:26;;;;;;;4.67;3.50;;;4.20;93.90;;;;;;5078972;28;20548;-72
2020/12/30 10:11:52;;;;;;;4.17;2.70;;;4.30;94.00;;;;;;5083201;28;20231;-74
2020/12/30 10:14:21;;;;;;;4.60;4.10;;;4.60;92.90;;;;;;5079380;28;20284;-73
2020/12/30 10:16:48;;;;;;;3.47;3.10;;;4.70;92.60;;;;;;5079988;28;20194;-72
2020/12/30 10:19:14;;;;;;;3.67;3.37;;;4.90;91.60;;;;;;5075335;28;20197;-75
2020/12/30 10:21:40;;;;;;;3.97;3.07;;;5.00;91.40;;;;;;5080267;28;20210;-74
2020/12/30 10:24:06;;;;;;;3.40;3.10;;;5.30;91.10;;;;;;5082703;28;20202;-71
2020/12/30 10:26:33;;;;;;;4.00;3.03;;;5.60;89.60;;;;;;5081502;28;20202;-72
2020/12/30 10:28:58;;;;;;;4.97;3.30;;;6.00;88.90;;;;;;5077341;28;20172;-75
2020/12/30 10:31:24;;;;;;;3.27;2.87;;;6.40;85.70;;;;;;5079727;28;20836;-76
2020/12/30 10:33:51;;;;;;;3.00;2.03;;;6.60;83.10;;;;;;5077724;28;20192;-72
2020/12/30 10:36:17;;;;;;;1.97;1.87;;;6.90;79.70;;;;;;5077984;28;20213;-73
2020/12/30 10:38:42;;;;;;;2.37;2.17;;;7.10;78.40;;;;;;5079206;28;20185;-72
2020/12/30 10:41:13;;;;;;;3.67;2.33;;;7.00;77.50;;;;;;5078959;28;20237;-72
2020/12/30 10:43:43;;;;;;;4.47;2.40;;;6.80;78.80;;;;;;5082429;28;20258;-72
2020/12/30 10:46:14;;;;;;;2.57;2.10;;;6.90;79.70;;;;;;5097679;28;20179;-73
2020/12/30 10:48:48;;;;;;;3.07;2.20;;;6.90;77.80;;;;;;5101003;28;20197;-72
2020/12/30 10:51:17;;;;;;;2.60;2.03;;;6.90;78.10;;;;;;5098517;28;20171;-74
2020/12/30 10:53:44;;;;;;;3.63;2.40;;;7.10;77.20;;;;;;5092376;28;20728;-72
2020/12/30 10:56:10;;;;;;;3.57;2.33;;;7.20;77.50;;;;;;5074415;28;20175;-75
2020/12/30 10:58:37;;;;;;;3.30;2.10;;;7.50;76.30;;;;;;5080264;28;20187;-72
2020/12/30 11:01:13;;;;;;;4.20;2.53;;;7.90;72.50;;;;;;5080152;28;20209;-73
2020/12/30 11:03:40;;;;;;;2.80;1.90;;;8.30;70.50;;;;;;5084741;28;20205;-72
2020/12/30 11:06:07;;;;;;;3.00;2.00;;;8.30;70.00;;;;;;5079659;28;20182;-71
2020/12/30 11:08:33;;;;;;;3.23;2.23;;;8.00;72.30;;;;;;5080007;28;20218;-73
2020/12/30 11:11:04;;;;;;;2.00;1.90;;;7.80;74.50;;;;;;5073353;28;20195;-71
2020/12/30 11:13:30;;;;;;;2.83;1.93;;;7.40;76.50;;;;;;5076939;28;20207;-72
2020/12/30 11:15:55;;;;;;;3.67;2.20;;;7.20;77.70;;;;;;5083883;28;20205;-73
2020/12/30 11:18:21;;;;;;;3.23;2.07;;;7.20;77.70;;;;;;5076142;28;20588;-71
2020/12/30 11:20:48;;;;;;;3.50;2.30;;;6.90;78.30;;;;;;5077834;28;20214;-72
2020/12/30 11:23:14;;;;;;;2.70;1.90;;;6.80;80.20;;;;;;5078417;28;20205;-71
2020/12/30 11:25:45;;;;;;;3.57;2.20;;;6.80;81.00;;;;;;5077289;28;20581;-72
2020/12/30 11:28:10;;;;;;;4.07;1.87;;;6.90;80.40;;;;;;5079679;28;20559;-73
2020/12/30 11:30:37;;;;;;;2.47;2.00;;;6.90;79.60;;;;;;5078850;28;20178;-71
2020/12/30 11:33:03;;;;;;;3.70;2.57;;;6.70;80.80;;;;;;5077164;28;20235;-73
2020/12/30 11:35:30;;;;;;;3.23;2.30;;;6.40;82.50;;;;;;5077996;28;20180;-73
2020/12/30 11:37:56;;;;;;;2.90;2.43;;;6.30;83.90;;;;;;5078795;28;20194;-72
2020/12/30 11:40:22;;;;;;;3.97;2.70;;;6.30;84.80;;;;;;5071268;28;20264;-73
2020/12/30 11:42:48;;;;;;;4.23;3.00;;;6.30;85.80;;;;;;5081255;28;20299;-71
2020/12/30 11:45:14;;;;;;;2.60;2.40;;;6.30;84.60;;;;;;5085367;28;20589;-71
2020/12/30 11:47:40;;;;;;;2.13;1.97;;;6.30;85.30;;;;;;5081283;28;20191;-72
2020/12/30 11:50:06;;;;;;;2.80;2.20;;;6.30;85.30;;;;;;5080742;28;20243;-72
2020/12/30 11:52:32;;;;;;;2.17;1.90;;;6.10;85.90;;;;;;5076041;28;20605;-72
2020/12/30 11:54:57;;;;;;;4.30;2.47;;;6.10;86.90;;;;;;5077835;28;20216;-72
2020/12/30 11:57:23;;;;;;;3.70;2.13;;;6.00;87.50;;;;;;5077379;28;20190;-72
2020/12/30 11:59:48;;;;;;;2.83;2.23;;;5.90;88.60;;;;;;5081779;28;20181;-71
2020/12/30 12:02:14;;;;;;;3.23;2.47;;;5.90;89.10;;;;;;5079332;28;20719;-71
2020/12/30 12:04:40;;;;;;;2.03;1.87;;;5.80;90.20;;;;;;5084190;28;20202;-72
2020/12/30 12:07:05;;;;;;;5.00;2.60;;;5.70;90.60;;;;;;5077147;28;20187;-73
2020/12/30 12:09:31;;;;;;;3.13;2.33;;;5.60;91.20;;;;;;5083050;28;20182;-70
2020/12/30 12:11:56;;;;;;;4.77;2.53;;;5.60;91.30;;;;;;5082217;28;20184;-73
2020/12/30 12:14:22;;;;;;;3.53;2.20;;;5.70;91.60;;;;;;5081404;28;20206;-72
2020/12/30 12:16:55;;;;;;;2.47;2.20;;;5.70;91.20;;;;;;5084659;28;20242;-72
2020/12/30 12:19:22;;;;;;;2.43;2.23;;;5.70;91.20;;;;;;5083427;28;20206;-74
2020/12/30 12:21:49;;;;;;;2.63;2.20;;;5.50;91.60;;;;;;5104828;28;20229;-72
2020/12/30 12:24:15;;;;;;;5.03;2.47;;;5.50;92.00;;;;;;5085839;28;20230;-74
2020/12/30 12:26:41;;;;;;;3.10;2.30;;;5.50;91.60;;;;;;5080535;28;20181;-73
2020/12/30 12:29:34;;;;;;;5.03;2.73;;;5.40;92.10;;;;;;5084705;28;20193;-72
2020/12/30 12:32:21;;;;;;;3.10;2.80;;;5.40;92.10;;;;;;5085641;28;20194;-73
2020/12/30 12:34:51;;;;;;;3.03;2.60;;;5.50;92.50;;;;;;5088259;28;20202;-72
2020/12/30 12:37:19;;;;;;;5.43;3.00;;;5.60;92.00;;;;;;5083317;28;20386;-75
2020/12/30 12:39:46;;;;;;;7.60;4.03;;;5.70;91.90;;;;;;5081801;28;20266;-73
2020/12/30 12:42:12;;;;;;;4.97;3.37;;;5.80;91.80;;;;;;5085081;28;20299;-74
2020/12/30 12:44:38;;;;;;;3.23;2.80;;;6.50;90.90;;;;;;5076688;28;20298;-72
2020/12/30 12:47:04;;;;;;;3.70;2.70;;;7.20;87.10;;;;;;5080565;28;20737;-75
2020/12/30 12:49:30;;;;;;;3.57;3.13;;;8.60;77.40;;;;;;5076203;28;20194;-73
2020/12/30 12:51:57;;;;;;;5.57;3.57;;;9.30;72.70;;;;;;5077861;28;20672;-73
2020/12/30 12:54:23;;;;;;;3.80;2.90;;;10.40;65.20;;;;;;5075297;28;20242;-73
2020/12/30 12:56:54;;;;;;;4.70;2.80;;;10.80;62.90;;;;;;5077953;28;20204;-72
2020/12/30 12:59:20;;;;;;;5.53;3.27;;;10.00;64.60;;;;;;5079405;28;20186;-73
2020/12/30 13:01:46;;;;;;;2.20;2.10;;;9.60;67.80;;;;;;5075829;28;20211;-73
2020/12/30 13:04:12;;;;;;;3.83;3.00;;;9.10;69.80;;;;;;5078226;28;20203;-73